Time;durP1;ratioP1;P1;durP2;ratioP2;P2;SDS_P1;SDS_P2;PMS_P1;PMS_P2;Temp;Humidity;BMP_temperature;BMP_pressure;BME280_temperature;BME280_humidity;BME280_pressure;Samples;Min_cycle;Max_cycle;Signal;HPM_P1;HPM_P2
2022/10/14 00:00:48;;;;;;;2.20;2.00;;;;;18.60;100442.00;;;;2085869;28;20308;-52
2022/10/14 00:01:49;;;;;;;1.97;1.77;;;;;18.30;100445.00;;;;2085193;28;20262;-51
2022/10/14 00:02:49;;;;;;;1.90;1.80;;;;;18.60;100439.00;;;;2086827;28;20212;-52
2022/10/14 00:03:49;;;;;;;2.20;2.00;;;;;18.60;100449.00;;;;2086766;28;20241;-51
2022/10/14 00:04:50;;;;;;;1.73;1.63;;;;;18.60;100444.00;;;;2086742;28;20661;-50
2022/10/14 00:05:50;;;;;;;2.30;2.10;;;;;18.60;100449.00;;;;2086040;28;20868;-52
2022/10/14 00:06:50;;;;;;;2.20;1.90;;;;;18.60;100443.00;;;;2087489;28;21216;-52
2022/10/14 00:07:51;;;;;;;2.00;1.80;;;;;18.60;100448.00;;;;2088458;28;20698;-52
2022/10/14 00:08:51;;;;;;;2.33;1.80;;;;;18.60;100451.00;;;;2088191;28;20554;-52
2022/10/14 00:09:52;;;;;;;2.37;2.17;;;;;18.60;100355.00;;;;2088046;28;20219;-52
2022/10/14 00:10:52;;;;;;;2.20;2.00;;;;;18.60;100448.00;;;;2088382;28;20549;-52
2022/10/14 00:11:52;;;;;;;2.10;1.90;;;;;18.60;100450.00;;;;2079558;28;20224;-52
2022/10/14 00:12:53;;;;;;;1.90;1.70;;;;;18.60;100453.00;;;;2080059;28;20232;-52
2022/10/14 00:13:55;;;;;;;2.13;1.93;;;;;18.60;100454.00;;;;2081324;28;20228;-50
2022/10/14 00:14:55;;;;;;;2.00;1.80;;;;;18.60;100444.00;;;;2087718;28;20224;-52
2022/10/14 00:15:55;;;;;;;2.07;1.87;;;;;18.60;100444.00;;;;2087176;28;20227;-49
2022/10/14 00:16:56;;;;;;;2.17;1.97;;;;;18.60;100442.00;;;;2083770;28;20205;-50
2022/10/14 00:17:56;;;;;;;1.87;1.60;;;;;18.60;100439.00;;;;2080319;28;20286;-51
2022/10/14 00:18:57;;;;;;;2.20;2.00;;;;;18.60;100442.00;;;;2079986;28;20250;-51
2022/10/14 00:19:58;;;;;;;1.93;1.73;;;;;18.60;100439.00;;;;2079536;28;20245;-52
2022/10/14 00:21:00;;;;;;;2.47;2.08;;;;;18.60;100433.00;;;;2080139;28;20209;-51
2022/10/14 00:22:01;;;;;;;1.77;1.67;;;;;18.60;100439.00;;;;2079281;28;20221;-52
2022/10/14 00:23:01;;;;;;;1.90;1.70;;;;;18.60;100439.00;;;;2082226;28;20233;-50
2022/10/14 00:24:01;;;;;;;2.50;2.30;;;;;18.60;100439.00;;;;2088099;28;20220;-50
2022/10/14 00:25:02;;;;;;;2.30;2.10;;;;;18.60;100437.00;;;;2088389;28;20642;-52
2022/10/14 00:26:02;;;;;;;2.30;1.97;;;;;18.60;100438.00;;;;2088027;28;20242;-51
2022/10/14 00:27:02;;;;;;;1.87;1.50;;;;;18.60;100432.00;;;;2088090;28;20211;-52
2022/10/14 00:28:03;;;;;;;2.63;2.10;;;;;18.60;100437.00;;;;2087463;28;20794;-52
2022/10/14 00:29:04;;;;;;;2.00;1.80;;;;;18.60;100436.00;;;;2086379;28;20723;-53
2022/10/14 00:30:05;;;;;;;2.10;1.90;;;;;18.60;100428.00;;;;2087046;28;20302;-52
2022/10/14 00:31:05;;;;;;;2.23;1.90;;;;;18.60;100434.00;;;;2087805;28;20231;-49
2022/10/14 00:32:06;;;;;;;3.47;2.27;;;;;18.60;100425.00;;;;2086004;28;20251;-51
2022/10/14 00:33:06;;;;;;;2.30;1.83;;;;;18.60;100434.00;;;;2086735;28;20215;-52
2022/10/14 00:34:07;;;;;;;2.20;2.00;;;;;18.60;100432.00;;;;2086671;28;20215;-51
2022/10/14 00:35:07;;;;;;;2.10;1.90;;;;;18.60;100427.00;;;;2086897;28;20462;-52
2022/10/14 00:36:10;;;;;;;1.70;1.60;;;;;18.60;100433.00;;;;2087520;28;20263;-52
2022/10/14 00:37:10;;;;;;;1.80;1.70;;;;;18.60;100431.00;;;;2087364;28;20278;-50
2022/10/14 00:38:10;;;;;;;2.17;1.97;;;;;18.60;100433.00;;;;2087307;28;20232;-52
2022/10/14 00:39:11;;;;;;;2.30;1.80;;;;;18.60;100432.00;;;;2086994;28;20220;-51
2022/10/14 00:40:11;;;;;;;1.70;1.60;;;;;18.60;100424.00;;;;2087280;28;20209;-51
2022/10/14 00:41:13;;;;;;;1.97;1.60;;;;;18.60;100433.00;;;;2079978;28;20287;-52
2022/10/14 00:42:14;;;;;;;2.10;1.90;;;;;18.60;100432.00;;;;2079322;28;20251;-52
2022/10/14 00:43:14;;;;;;;2.80;2.20;;;;;18.60;100436.00;;;;2085075;28;20575;-52
2022/10/14 00:44:14;;;;;;;2.90;2.03;;;;;18.60;100434.00;;;;2079601;28;20623;-52
2022/10/14 00:45:19;;;;;;;2.20;2.00;;;;;18.60;100439.00;;;;2079661;28;20221;-52
2022/10/14 00:46:19;;;;;;;1.83;1.67;;;;;18.60;100440.00;;;;2087192;28;20265;-50
2022/10/14 00:47:20;;;;;;;2.00;1.87;;;;;18.60;100444.00;;;;2086835;28;20213;-52
2022/10/14 00:48:22;;;;;;;1.83;1.70;;;;;18.60;100439.00;;;;2086481;28;20454;-52
2022/10/14 00:49:24;;;;;;;1.75;1.65;;;;;18.60;100436.00;;;;2087722;28;20213;-52
2022/10/14 00:50:24;;;;;;;2.22;1.75;;;;;18.60;100439.00;;;;2084721;28;20216;-52
2022/10/14 00:51:24;;;;;;;1.73;1.50;;;;;18.60;100444.00;;;;2078993;28;20233;-52
2022/10/14 00:52:25;;;;;;;1.70;1.60;;;;;18.60;100437.00;;;;2078197;28;20244;-52
2022/10/14 00:53:25;;;;;;;2.47;2.07;;;;;18.60;100435.00;;;;2078878;28;20308;-52
2022/10/14 00:54:31;;;;;;;2.63;2.13;;;;;18.50;100430.00;;;;2079108;28;20216;-51
2022/10/14 00:55:31;;;;;;;2.03;1.83;;;;;18.60;100347.00;;;;2082167;28;20207;-51
2022/10/14 00:56:32;;;;;;;2.03;1.83;;;;;18.60;100431.00;;;;2079538;28;20216;-51
2022/10/14 00:57:32;;;;;;;2.33;2.00;;;;;18.60;100418.00;;;;2070632;28;20589;-52
2022/10/14 00:58:33;;;;;;;1.70;1.60;;;;;18.60;100438.00;;;;2070350;28;20210;-52
2022/10/14 00:59:33;;;;;;;2.33;1.93;;;;;18.60;100439.00;;;;2069966;28;20210;-52
2022/10/14 01:00:33;;;;;;;2.03;1.80;;;;;18.60;100440.00;;;;2078720;28;20223;-52
2022/10/14 01:01:34;;;;;;;1.73;1.63;;;;;18.60;100439.00;;;;2079722;28;20231;-52
2022/10/14 01:02:34;;;;;;;1.50;1.40;;;;;18.60;100433.00;;;;2078166;28;20216;-51
2022/10/14 01:03:34;;;;;;;2.10;1.90;;;;;18.60;100435.00;;;;2078851;28;20221;-52
2022/10/14 01:04:36;;;;;;;2.20;2.00;;;;;18.30;100436.00;;;;2079516;28;20224;-52
2022/10/14 01:05:41;;;;;;;2.10;1.90;;;;;18.60;100431.00;;;;2078362;28;20224;-50
2022/10/14 01:06:58;;;;;;;1.90;1.80;;;;;18.60;100437.00;;;;2078776;28;20209;-52
2022/10/14 01:08:04;;;;;;;1.85;1.70;;;;;18.60;100431.00;;;;2083781;28;20215;-52
2022/10/14 01:09:19;;;;;;;1.58;1.40;;;;;18.60;100439.00;;;;2079443;28;20303;-51
2022/10/14 01:10:54;;;;;;;1.90;1.70;;;;;18.60;100432.00;;;;2080597;28;20292;-51
2022/10/14 01:12:01;;;;;;;1.63;1.50;;;;;18.60;100435.00;;;;2066340;28;20228;-50
2022/10/14 01:13:11;;;;;;;2.10;1.90;;;;;18.60;100436.00;;;;2053833;28;20219;-50
2022/10/14 01:14:49;;;;;;;2.20;1.98;;;;;18.60;100436.00;;;;2053710;28;20289;-52
2022/10/14 01:15:59;;;;;;;2.30;2.10;;;;;18.60;100439.00;;;;2072649;28;20251;-52
2022/10/14 01:17:27;;;;;;;2.20;1.67;;;;;18.60;100434.00;;;;2077686;28;20218;-50
2022/10/14 01:18:56;;;;;;;2.05;1.80;;;;;18.60;100444.00;;;;2068790;28;20297;-51
2022/10/14 01:20:34;;;;;;;2.00;1.80;;;;;18.60;100353.00;;;;2077893;28;20264;-50
2022/10/14 01:21:42;;;;;;;2.88;2.00;;;;;18.60;100411.00;;;;2079161;28;20226;-52
2022/10/14 01:22:46;;;;;;;2.47;1.80;;;;;18.60;100439.00;;;;2069218;28;20211;-55
2022/10/14 01:24:08;;;;;;;1.60;1.50;;;;;18.60;100436.00;;;;2071074;28;20229;-51
2022/10/14 01:25:12;;;;;;;2.25;1.80;;;;;18.60;100424.00;;;;2079548;28;20597;-52
2022/10/14 01:26:41;;;;;;;1.70;1.60;;;;;18.60;100428.00;;;;2076158;28;20232;-54
2022/10/14 01:27:48;;;;;;;1.70;1.60;;;;;18.60;100423.00;;;;2070904;28;20238;-52
2022/10/14 01:29:03;;;;;;;1.92;1.80;;;;;18.60;100421.00;;;;2071095;28;20262;-52
2022/10/14 01:30:33;;;;;;;2.20;2.00;;;;;18.60;100428.00;;;;2066915;28;20220;-49
2022/10/14 01:31:34;;;;;;;1.80;1.70;;;;;18.60;100420.00;;;;2074352;28;20260;-52
2022/10/14 01:33:11;;;;;;;2.20;1.80;;;;;18.60;100419.00;;;;2077775;28;20213;-52
2022/10/14 01:34:12;;;;;;;1.85;1.75;;;;;18.60;100400.00;;;;2069019;28;20220;-52
2022/10/14 01:35:27;;;;;;;2.63;2.03;;;;;18.60;100415.00;;;;2065234;28;20305;-52
2022/10/14 01:36:57;;;;;;;1.40;1.30;;;;;18.60;100416.00;;;;2066622;28;20225;-52
2022/10/14 01:38:00;;;;;;;2.10;1.98;;;;;18.60;100417.00;;;;2074085;28;20274;-52
2022/10/14 01:39:05;;;;;;;1.70;1.60;;;;;18.60;100410.00;;;;2086103;28;20213;-51
2022/10/14 01:40:10;;;;;;;1.80;1.60;;;;;18.60;100409.00;;;;2086021;28;20221;-52
2022/10/14 01:41:17;;;;;;;2.47;1.92;;;;;18.50;100408.00;;;;2086080;28;20296;-49
2022/10/14 01:42:19;;;;;;;1.80;1.60;;;;;18.60;100414.00;;;;2083601;28;20220;-50
2022/10/14 01:43:20;;;;;;;2.20;2.00;;;;;18.60;100405.00;;;;2082432;28;20224;-52
2022/10/14 01:44:20;;;;;;;1.80;1.70;;;;;18.60;100405.00;;;;2077876;28;20716;-52
2022/10/14 01:45:21;;;;;;;1.90;1.70;;;;;18.60;100410.00;;;;2078443;28;20403;-51
2022/10/14 01:46:22;;;;;;;1.70;1.60;;;;;18.60;100402.00;;;;2077726;28;20213;-52
2022/10/14 01:47:22;;;;;;;2.03;1.63;;;;;18.60;100407.00;;;;2069347;28;20468;-51
2022/10/14 01:48:24;;;;;;;1.93;1.73;;;;;18.60;100394.00;;;;2061108;28;20953;-52
2022/10/14 01:49:31;;;;;;;2.10;1.88;;;;;18.60;100380.00;;;;2062287;28;20241;-52
2022/10/14 01:50:31;;;;;;;2.20;2.00;;;;;18.60;100381.00;;;;2062927;28;20242;-50
2022/10/14 01:51:53;;;;;;;1.90;1.80;;;;;18.60;100395.00;;;;2062233;28;20230;-52
2022/10/14 01:53:15;;;;;;;1.65;1.55;;;;;18.60;100379.00;;;;2072084;28;20227;-52
2022/10/14 01:54:22;;;;;;;1.70;1.60;;;;;18.60;100384.00;;;;2073416;28;21173;-52
2022/10/14 01:55:24;;;;;;;2.00;1.90;;;;;18.60;100362.00;;;;2071222;28;20249;-54
2022/10/14 01:56:26;;;;;;;1.70;1.60;;;;;18.60;100364.00;;;;2070410;28;20211;-52
2022/10/14 01:57:28;;;;;;;1.75;1.60;;;;;18.60;100378.00;;;;2064440;28;20272;-52
2022/10/14 01:58:30;;;;;;;2.10;1.90;;;;;18.60;100383.00;;;;2086855;28;20196;-52
2022/10/14 01:59:31;;;;;;;2.00;1.80;;;;;18.60;100386.00;;;;2086327;28;20641;-51
2022/10/14 02:00:31;;;;;;;2.00;1.70;;;;;18.60;100377.00;;;;2082165;28;20205;-51
2022/10/14 02:01:33;;;;;;;1.70;1.43;;;;;18.60;100382.00;;;;2079286;28;20213;-52
2022/10/14 02:02:36;;;;;;;1.90;1.70;;;;;18.60;100383.00;;;;2078508;28;21049;-52
2022/10/14 02:03:41;;;;;;;1.83;1.70;;;;;18.60;100384.00;;;;2079360;28;20233;-52
2022/10/14 02:04:42;;;;;;;1.73;1.63;;;;;18.60;100381.00;;;;2079276;28;20220;-51
2022/10/14 02:05:47;;;;;;;2.83;2.30;;;;;18.60;100385.00;;;;2085288;28;20308;-51
2022/10/14 02:07:00;;;;;;;2.63;2.10;;;;;18.60;100383.00;;;;2086886;28;20229;-50
2022/10/14 02:08:09;;;;;;;2.00;1.80;;;;;18.60;100379.00;;;;2085271;28;20213;-52
2022/10/14 02:09:46;;;;;;;2.17;1.98;;;;;18.60;100380.00;;;;2071826;28;20225;-50
2022/10/14 02:11:03;;;;;;;1.65;1.55;;;;;18.60;100373.00;;;;2080560;28;20237;-51
2022/10/14 02:12:27;;;;;;;2.90;1.90;;;;;18.60;100379.00;;;;2078001;28;20589;-52
2022/10/14 02:13:42;;;;;;;2.83;1.98;;;;;18.60;100370.00;;;;2085188;28;20323;-52
2022/10/14 02:14:56;;;;;;;1.80;1.63;;;;;18.60;100379.00;;;;2086774;28;20208;-52
2022/10/14 02:16:28;;;;;;;1.95;1.60;;;;;18.60;100377.00;;;;2086546;28;20227;-52
2022/10/14 02:17:30;;;;;;;2.08;1.90;;;;;18.60;100378.00;;;;2086373;28;20233;-51
2022/10/14 02:18:59;;;;;;;1.80;1.70;;;;;18.60;100379.00;;;;2086384;28;20533;-51
2022/10/14 02:20:07;;;;;;;2.10;1.80;;;;;18.60;100373.00;;;;2083273;28;20696;-52
2022/10/14 02:21:16;;;;;;;1.77;1.67;;;;;18.60;100373.00;;;;2071734;28;20221;-52
2022/10/14 02:22:36;;;;;;;1.90;1.70;;;;;18.60;100376.00;;;;2064830;28;20214;-50
2022/10/14 02:23:40;;;;;;;2.10;1.52;;;;;18.60;100377.00;;;;2079247;28;20222;-51
2022/10/14 02:24:43;;;;;;;1.52;1.42;;;;;18.60;100347.00;;;;2087189;28;20604;-51
2022/10/14 02:25:44;;;;;;;2.65;1.50;;;;;18.60;100376.00;;;;2086563;28;20322;-51
2022/10/14 02:26:45;;;;;;;1.63;1.53;;;;;18.60;100373.00;;;;2086419;28;20607;-49
2022/10/14 02:27:45;;;;;;;1.70;1.60;;;;;18.50;100366.00;;;;2072027;28;20467;-49
2022/10/14 02:28:46;;;;;;;1.80;1.70;;;;;18.60;100340.00;;;;2086278;28;20455;-52
2022/10/14 02:29:46;;;;;;;1.70;1.60;;;;;18.60;100365.00;;;;2077884;28;20221;-52
2022/10/14 02:30:55;;;;;;;2.23;2.03;;;;;18.60;100358.00;;;;2069458;28;20706;-51
2022/10/14 02:31:55;;;;;;;1.80;1.70;;;;;18.60;100354.00;;;;2078320;28;20217;-51
2022/10/14 02:32:56;;;;;;;2.00;1.80;;;;;18.60;100363.00;;;;2077975;28;20241;-51
2022/10/14 02:33:57;;;;;;;2.00;1.80;;;;;18.60;100359.00;;;;2077241;28;20352;-52
2022/10/14 02:34:58;;;;;;;1.50;1.40;;;;;18.60;100358.00;;;;2078037;28;20210;-52
2022/10/14 02:35:58;;;;;;;1.90;1.80;;;;;18.60;100361.00;;;;2086625;28;20221;-52
2022/10/14 02:36:59;;;;;;;1.70;1.60;;;;;18.60;100358.00;;;;2084897;28;20243;-51
2022/10/14 02:37:59;;;;;;;2.00;1.50;;;;;18.60;100353.00;;;;2086453;28;20213;-49
2022/10/14 02:38:59;;;;;;;1.70;1.60;;;;;18.60;100357.00;;;;2085883;28;20613;-52
2022/10/14 02:40:08;;;;;;;1.43;1.33;;;;;18.60;100352.00;;;;2078402;28;20220;-52
2022/10/14 02:41:11;;;;;;;2.25;1.60;;;;;18.60;100354.00;;;;2078798;28;20224;-52
2022/10/14 02:42:12;;;;;;;1.80;1.65;;;;;18.60;100353.00;;;;2083229;28;20313;-52
2022/10/14 02:43:12;;;;;;;2.10;1.90;;;;;18.60;100358.00;;;;2085161;28;20233;-50
2022/10/14 02:44:13;;;;;;;1.90;1.63;;;;;18.60;100352.00;;;;2079666;28;20224;-52
2022/10/14 02:45:13;;;;;;;2.17;1.93;;;;;18.60;100341.00;;;;2077233;28;20248;-52
2022/10/14 02:46:14;;;;;;;3.30;1.57;;;;;18.60;100357.00;;;;2069778;28;20226;-52
2022/10/14 02:47:14;;;;;;;1.60;1.50;;;;;18.60;100369.00;;;;2086175;28;20223;-52
2022/10/14 02:48:15;;;;;;;1.80;1.70;;;;;18.60;100351.00;;;;2081364;28;21047;-52
2022/10/14 02:49:16;;;;;;;1.80;1.60;;;;;18.60;100360.00;;;;2076846;28;20229;-52
2022/10/14 02:50:17;;;;;;;1.60;1.50;;;;;18.60;100356.00;;;;2083421;28;20225;-52
2022/10/14 02:51:18;;;;;;;1.90;1.27;;;;;18.60;100358.00;;;;2077936;28;20232;-50
2022/10/14 02:52:18;;;;;;;1.57;1.47;;;;;18.60;100348.00;;;;2085220;28;20216;-51
2022/10/14 02:53:19;;;;;;;2.10;1.70;;;;;18.60;100348.00;;;;2086587;28;20258;-52
2022/10/14 02:54:19;;;;;;;1.50;1.40;;;;;18.50;100343.00;;;;2086705;28;20227;-52
2022/10/14 02:55:19;;;;;;;1.90;1.80;;;;;18.60;100346.00;;;;2086018;28;20964;-52
2022/10/14 02:56:20;;;;;;;1.77;1.67;;;;;18.60;100339.00;;;;2085251;28;20220;-52
2022/10/14 02:57:20;;;;;;;2.23;2.03;;;;;18.60;100341.00;;;;2085181;28;20944;-51
2022/10/14 02:58:20;;;;;;;1.73;1.60;;;;;18.60;100336.00;;;;2086696;28;20954;-50
2022/10/14 02:59:21;;;;;;;1.63;1.53;;;;;18.60;100340.00;;;;2086697;28;20784;-52
2022/10/14 03:00:21;;;;;;;1.50;1.40;;;;;18.60;100339.00;;;;2085902;28;20212;-52
2022/10/14 03:01:22;;;;;;;1.63;1.53;;;;;18.60;100335.00;;;;2085692;28;20213;-52
2022/10/14 03:02:22;;;;;;;1.80;1.70;;;;;18.60;100333.00;;;;2085193;28;20227;-52
2022/10/14 03:03:22;;;;;;;1.63;1.53;;;;;18.60;100333.00;;;;2085828;28;20282;-52
2022/10/14 03:04:23;;;;;;;2.10;1.90;;;;;18.60;100335.00;;;;2086052;28;20223;-51
2022/10/14 03:05:23;;;;;;;1.60;1.50;;;;;18.60;100335.00;;;;2084720;28;20284;-52
2022/10/14 03:06:24;;;;;;;1.87;1.70;;;;;18.50;100326.00;;;;2085864;28;20258;-52
2022/10/14 03:07:24;;;;;;;1.53;1.40;;;;;18.60;100331.00;;;;2086925;28;20215;-52
2022/10/14 03:08:24;;;;;;;1.43;1.33;;;;;18.60;100330.00;;;;2086683;28;20762;-52
2022/10/14 03:09:25;;;;;;;1.70;1.53;;;;;18.60;100331.00;;;;2077355;28;20257;-50
2022/10/14 03:10:25;;;;;;;2.03;1.67;;;;;18.60;100319.00;;;;2077466;28;20225;-50
2022/10/14 03:11:26;;;;;;;1.40;1.30;;;;;18.60;100325.00;;;;2077330;28;20304;-51
2022/10/14 03:12:26;;;;;;;1.63;1.53;;;;;18.60;100330.00;;;;2076538;28;20286;-52
2022/10/14 03:13:26;;;;;;;1.37;1.27;;;;;18.60;100324.00;;;;2077177;28;20223;-52
2022/10/14 03:14:27;;;;;;;1.97;1.77;;;;;18.60;100319.00;;;;2068352;28;20221;-51
2022/10/14 03:15:27;;;;;;;2.17;1.83;;;;;18.60;100315.00;;;;2071800;28;20221;-50
2022/10/14 03:16:28;;;;;;;1.70;1.60;;;;;18.60;100326.00;;;;2079316;28;20287;-50
2022/10/14 03:17:29;;;;;;;1.70;1.60;;;;;18.60;100317.00;;;;2078242;28;20224;-51
2022/10/14 03:18:30;;;;;;;1.80;1.70;;;;;18.60;100321.00;;;;2076169;28;20378;-52
2022/10/14 03:19:30;;;;;;;1.47;1.37;;;;;18.60;100319.00;;;;2078145;28;20726;-51
2022/10/14 03:20:31;;;;;;;2.43;1.70;;;;;18.60;100323.00;;;;2077936;28;20462;-51
2022/10/14 03:21:31;;;;;;;1.90;1.60;;;;;18.60;100315.00;;;;2076798;28;20311;-52
2022/10/14 03:22:32;;;;;;;1.73;1.63;;;;;18.60;100309.00;;;;2076506;28;20223;-51
2022/10/14 03:23:32;;;;;;;2.00;1.87;;;;;18.60;100322.00;;;;2079779;28;20647;-52
2022/10/14 03:24:32;;;;;;;1.60;1.50;;;;;18.60;100317.00;;;;2086214;28;20222;-51
2022/10/14 03:25:33;;;;;;;1.53;1.43;;;;;18.60;100315.00;;;;2086085;28;20205;-52
2022/10/14 03:26:33;;;;;;;1.50;1.40;;;;;18.60;100314.00;;;;2080986;28;20212;-52
2022/10/14 03:27:34;;;;;;;2.20;1.70;;;;;18.60;100312.00;;;;2077101;28;20216;-52
2022/10/14 03:28:34;;;;;;;1.70;1.60;;;;;18.60;100323.00;;;;2077821;28;20693;-50
2022/10/14 03:29:34;;;;;;;1.73;1.63;;;;;18.60;100318.00;;;;2084990;28;20311;-52
2022/10/14 03:30:35;;;;;;;2.20;1.93;;;;;18.60;100317.00;;;;2085550;28;20220;-52
2022/10/14 03:31:35;;;;;;;1.60;1.50;;;;;18.60;100311.00;;;;2086529;28;20228;-52
2022/10/14 03:32:36;;;;;;;1.40;1.30;;;;;18.60;100314.00;;;;2085122;28;20223;-50
2022/10/14 03:33:36;;;;;;;2.07;1.87;;;;;18.60;100317.00;;;;2086225;28;20211;-52
2022/10/14 03:34:37;;;;;;;2.13;1.77;;;;;18.60;100316.00;;;;2076883;28;20716;-52
2022/10/14 03:35:37;;;;;;;1.60;1.50;;;;;18.60;100310.00;;;;2077590;28;20255;-52
2022/10/14 03:36:38;;;;;;;1.97;1.33;;;;;18.60;100309.00;;;;2085775;28;20260;-52
2022/10/14 03:37:38;;;;;;;1.80;1.70;;;;;18.60;100301.00;;;;2085869;28;20239;-52
2022/10/14 03:38:38;;;;;;;1.47;1.37;;;;;18.60;100306.00;;;;2085515;28;20246;-52
2022/10/14 03:39:39;;;;;;;1.50;1.40;;;;;18.60;100311.00;;;;2086031;28;20202;-51
2022/10/14 03:40:39;;;;;;;1.67;1.57;;;;;18.60;100311.00;;;;2086193;28;20226;-51
2022/10/14 03:41:39;;;;;;;1.83;1.70;;;;;18.60;100304.00;;;;2085361;28;20218;-52
2022/10/14 03:42:40;;;;;;;1.83;1.63;;;;;18.60;100312.00;;;;2084337;28;20289;-52
2022/10/14 03:43:40;;;;;;;1.33;1.23;;;;;18.60;100302.00;;;;2084493;28;20215;-52
2022/10/14 03:44:41;;;;;;;1.63;1.53;;;;;18.60;100207.00;;;;2086509;28;20714;-52
2022/10/14 03:45:43;;;;;;;1.63;1.53;;;;;18.60;100305.00;;;;2077215;28;20216;-51
2022/10/14 03:46:44;;;;;;;1.70;1.60;;;;;18.60;100302.00;;;;2061168;28;20698;-52
2022/10/14 03:47:44;;;;;;;1.50;1.40;;;;;18.60;100297.00;;;;2068836;28;20225;-52
2022/10/14 03:48:44;;;;;;;1.40;1.30;;;;;18.60;100299.00;;;;2079791;28;20205;-51
2022/10/14 03:49:45;;;;;;;1.80;1.70;;;;;18.60;100303.00;;;;2084602;28;20225;-52
2022/10/14 03:50:48;;;;;;;1.73;1.63;;;;;18.60;100301.00;;;;2081978;28;20212;-52
2022/10/14 03:51:48;;;;;;;1.50;1.40;;;;;18.60;100301.00;;;;2076848;28;20311;-50
2022/10/14 03:52:49;;;;;;;1.60;1.50;;;;;18.60;100300.00;;;;2078076;28;20208;-52
2022/10/14 03:53:49;;;;;;;2.10;1.70;;;;;18.60;100297.00;;;;2071745;28;20208;-49
2022/10/14 03:54:49;;;;;;;1.70;1.60;;;;;18.60;100303.00;;;;2077098;28;20217;-50
2022/10/14 03:55:50;;;;;;;1.50;1.40;;;;;18.60;100305.00;;;;2086562;28;20212;-50
2022/10/14 03:56:50;;;;;;;1.90;1.70;;;;;18.60;100301.00;;;;2085849;28;20224;-51
2022/10/14 03:57:51;;;;;;;2.00;1.80;;;;;18.60;100304.00;;;;2084575;28;20292;-52
2022/10/14 03:58:51;;;;;;;2.50;2.20;;;;;18.60;100303.00;;;;2085132;28;20216;-52
2022/10/14 03:59:51;;;;;;;1.60;1.50;;;;;18.60;100307.00;;;;2085469;28;20223;-52
2022/10/14 04:00:52;;;;;;;1.50;1.40;;;;;18.60;100305.00;;;;2083912;28;20208;-50
2022/10/14 04:01:52;;;;;;;1.63;1.53;;;;;18.60;100297.00;;;;2085566;28;20244;-51
2022/10/14 04:02:53;;;;;;;1.97;1.77;;;;;18.60;100294.00;;;;2086430;28;20223;-51
2022/10/14 04:03:53;;;;;;;2.17;1.80;;;;;18.60;100299.00;;;;2080853;28;20213;-52
2022/10/14 04:04:53;;;;;;;1.60;1.50;;;;;18.60;100295.00;;;;2077481;28;20379;-51
2022/10/14 04:05:54;;;;;;;2.33;1.60;;;;;18.60;100305.00;;;;2077811;28;20209;-51
2022/10/14 04:06:54;;;;;;;2.00;1.80;;;;;18.60;100299.00;;;;2085406;28;20247;-50
2022/10/14 04:07:55;;;;;;;1.97;1.87;;;;;18.60;100300.00;;;;2077501;28;20275;-51
2022/10/14 04:08:55;;;;;;;1.63;1.53;;;;;18.60;100298.00;;;;2067933;28;20228;-52
2022/10/14 04:09:56;;;;;;;1.63;1.53;;;;;18.60;100304.00;;;;2075377;28;20216;-52
2022/10/14 04:10:57;;;;;;;1.67;1.57;;;;;18.60;100303.00;;;;2077557;28;20231;-52
2022/10/14 04:11:58;;;;;;;1.70;1.60;;;;;18.60;100300.00;;;;2083624;28;20228;-52
2022/10/14 04:12:58;;;;;;;1.87;1.73;;;;;18.60;100304.00;;;;2077500;28;20296;-51
2022/10/14 04:13:59;;;;;;;1.80;1.70;;;;;18.60;100309.00;;;;2077058;28;20262;-51
2022/10/14 04:14:59;;;;;;;2.17;1.97;;;;;18.60;100302.00;;;;2078291;28;20214;-52
2022/10/14 04:16:04;;;;;;;1.60;1.50;;;;;18.60;100301.00;;;;2077864;28;20463;-52
2022/10/14 04:17:04;;;;;;;1.58;1.48;;;;;18.60;100301.00;;;;2078010;28;20213;-52
2022/10/14 04:18:05;;;;;;;2.50;1.60;;;;;18.60;100312.00;;;;2068771;28;20232;-52
2022/10/14 04:19:05;;;;;;;1.50;1.40;;;;;18.60;100304.00;;;;2072931;28;20222;-52
2022/10/14 04:20:05;;;;;;;1.47;1.37;;;;;18.60;100299.00;;;;2085399;28;20657;-50
2022/10/14 04:21:07;;;;;;;1.20;1.10;;;;;18.60;100297.00;;;;2084994;28;21114;-51
2022/10/14 04:22:09;;;;;;;1.90;1.70;;;;;18.60;100301.00;;;;2076044;28;20216;-54
2022/10/14 04:23:09;;;;;;;1.58;1.48;;;;;18.60;100300.00;;;;2068139;28;20222;-50
2022/10/14 04:24:09;;;;;;;2.67;1.80;;;;;18.60;100299.00;;;;2068868;28;20270;-50
2022/10/14 04:25:10;;;;;;;1.67;1.57;;;;;18.60;100295.00;;;;2077501;28;20216;-52
2022/10/14 04:26:10;;;;;;;1.70;1.60;;;;;18.60;100296.00;;;;2077352;28;20645;-52
2022/10/14 04:27:11;;;;;;;1.50;1.40;;;;;18.60;100292.00;;;;2077320;28;20217;-52
2022/10/14 04:28:11;;;;;;;2.00;1.47;;;;;18.60;100299.00;;;;2077165;28;20255;-52
2022/10/14 04:29:11;;;;;;;2.10;1.90;;;;;18.60;100301.00;;;;2073995;28;20227;-51
2022/10/14 04:30:12;;;;;;;1.97;1.47;;;;;18.60;100299.00;;;;2093138;28;20212;-51
2022/10/14 04:31:12;;;;;;;2.80;1.87;;;;;18.60;100296.00;;;;2087892;28;20221;-52
2022/10/14 04:32:12;;;;;;;1.50;1.40;;;;;18.60;100291.00;;;;2080830;28;20431;-52
2022/10/14 04:33:13;;;;;;;1.40;1.30;;;;;18.60;100286.00;;;;2078160;28;20237;-52
2022/10/14 04:34:13;;;;;;;2.07;1.97;;;;;18.60;100293.00;;;;2077929;28;20248;-52
2022/10/14 04:35:13;;;;;;;1.40;1.30;;;;;18.60;100288.00;;;;2078146;28;20210;-51
2022/10/14 04:36:14;;;;;;;2.20;2.00;;;;;18.60;100291.00;;;;2078186;28;20245;-50
2022/10/14 04:37:15;;;;;;;1.70;1.60;;;;;18.60;100295.00;;;;2084943;28;20231;-52
2022/10/14 04:38:15;;;;;;;1.50;1.40;;;;;18.60;100294.00;;;;2079918;28;20259;-52
2022/10/14 04:39:16;;;;;;;1.93;1.83;;;;;18.60;100292.00;;;;2060743;28;20226;-52
2022/10/14 04:40:19;;;;;;;1.60;1.50;;;;;18.60;100290.00;;;;2053289;28;20285;-51
2022/10/14 04:41:19;;;;;;;1.73;1.60;;;;;18.60;100293.00;;;;2077545;28;20652;-52
2022/10/14 04:42:19;;;;;;;1.50;1.40;;;;;18.60;100294.00;;;;2084399;28;20235;-52
2022/10/14 04:43:20;;;;;;;2.00;1.90;;;;;18.60;100299.00;;;;2082915;28;20217;-51
2022/10/14 04:44:20;;;;;;;1.57;1.47;;;;;18.60;100288.00;;;;2081129;28;20231;-51
2022/10/14 04:45:21;;;;;;;1.60;1.37;;;;;18.60;100289.00;;;;2085735;28;20228;-50
2022/10/14 04:46:21;;;;;;;1.77;1.67;;;;;18.60;100290.00;;;;2085645;28;20219;-51
2022/10/14 04:47:21;;;;;;;1.30;1.20;;;;;18.60;100293.00;;;;2082593;28;20300;-51
2022/10/14 04:48:22;;;;;;;1.40;1.30;;;;;18.60;100290.00;;;;2078203;28;20221;-51
2022/10/14 04:49:22;;;;;;;2.03;1.83;;;;;18.60;100305.00;;;;2078420;28;20243;-51
2022/10/14 04:50:22;;;;;;;1.50;1.40;;;;;18.60;100286.00;;;;2077654;28;20713;-50
2022/10/14 04:51:23;;;;;;;1.70;1.60;;;;;18.60;100288.00;;;;2078279;28;20705;-51
2022/10/14 04:52:23;;;;;;;1.80;1.70;;;;;18.60;100287.00;;;;2077305;28;20744;-51
2022/10/14 04:53:24;;;;;;;2.00;1.20;;;;;18.60;100289.00;;;;2072411;28;20740;-52
2022/10/14 04:54:24;;;;;;;1.60;1.50;;;;;18.60;100288.00;;;;2079805;28;20621;-51
2022/10/14 04:55:24;;;;;;;1.70;1.60;;;;;18.50;100287.00;;;;2079722;28;20557;-50
2022/10/14 04:56:25;;;;;;;1.73;1.63;;;;;18.60;100286.00;;;;2079787;28;20245;-51
2022/10/14 04:57:25;;;;;;;1.60;1.50;;;;;18.60;100290.00;;;;2079599;28;20216;-50
2022/10/14 04:58:25;;;;;;;1.50;1.40;;;;;18.60;100281.00;;;;2079353;28;20214;-51
2022/10/14 04:59:26;;;;;;;1.90;1.70;;;;;18.50;100288.00;;;;2079719;28;20252;-49
2022/10/14 05:00:26;;;;;;;2.03;1.83;;;;;18.60;100287.00;;;;2079420;28;20205;-52
2022/10/14 05:01:26;;;;;;;1.63;1.53;;;;;18.60;100284.00;;;;2078611;28;20209;-51
2022/10/14 05:02:27;;;;;;;1.50;1.40;;;;;18.60;100284.00;;;;2078871;28;20224;-51
2022/10/14 05:03:27;;;;;;;1.70;1.60;;;;;18.60;100281.00;;;;2079731;28;20217;-50
2022/10/14 05:04:27;;;;;;;2.00;1.77;;;;;18.60;100288.00;;;;2079503;28;20217;-51
2022/10/14 05:05:28;;;;;;;1.60;1.50;;;;;18.60;100285.00;;;;2079725;28;20238;-51
2022/10/14 05:06:28;;;;;;;1.70;1.60;;;;;18.60;100280.00;;;;2079760;28;20674;-51
2022/10/14 05:07:29;;;;;;;1.50;1.40;;;;;18.60;100282.00;;;;2079552;28;20880;-51
2022/10/14 05:08:29;;;;;;;2.40;1.57;;;;;18.60;100285.00;;;;2079575;28;20689;-51
2022/10/14 05:09:30;;;;;;;1.60;1.50;;;;;18.60;100288.00;;;;2079567;28;21045;-51
2022/10/14 05:10:30;;;;;;;1.57;1.47;;;;;18.60;100282.00;;;;2079383;28;20768;-51
2022/10/14 05:11:30;;;;;;;1.57;1.47;;;;;18.60;100273.00;;;;2079441;28;20220;-51
2022/10/14 05:12:31;;;;;;;1.67;1.57;;;;;18.60;100273.00;;;;2078784;28;20213;-50